Rigby, ID (83442)

11:28 PM MDT on August 29, 2016 (GMT -0600)
Labelle | | Change Station

Elev 4865 ft 43.70 °N, 111.89 °W | Updated 8 minutes ago

Clear
Clear
64.8 °F
Feels Like 64.8 °F
N
7.8
Wind Variable Wind from SE

Today
High -- | Low -- °F
--% Chance of Precip.
Yesterday
High -- | Low -- °F
Precip. -- in
Pressure 30.07 in
Visibility 10.0 miles
Clouds Clear
Dew Point 33 °F
Humidity 30%
Rainfall 0.00 in
Snow Depth Not available.
6:48 AM 8:07 PM
Waning Crescent, 5% visible
METAR KRXE 300453Z AUTO 34004KT 10SM CLR 17/05 A3019 RMK AO2 SLP183 T01720050
Pressure 30.07 in
Visibility 10.0 miles
Clouds Clear
Dew Point 33 °F
Humidity 30%
Rainfall 0.00 in
Snow Depth Not available.
6:48 AM 8:07 PM
Waning Crescent, 5% visible
METAR KRXE 300453Z AUTO 34004KT 10SM CLR 17/05 A3019 RMK AO2 SLP183 T01720050

10-Day Weather Forecast

Almanac

Astronomy

Aug. 29, 2016 Rise Set
Actual Time
Civil Twilight
Nautical Twilight
Astronomical Twilight
Moon
Length of Visible Light
Length of Day
Tomorrow will be .
, % of the Moon is Illuminated

Today's Extremes

State Highs State Lows

Community

WunderPhotos

Upload Photos

1,935,793 photos uploaded!

WunderBlog® & News

Nearby

Air Quality

  Air Quality AQ Index Pollutant
Not available.

Snow Depth

Station Depth Elevation

Earthquake Activity

City Distance Mag. Time & Date
Minimum magnitude displayed is 2.5.

Coastal Water Temperatures

Place Temperature

Stations

Nearby Weather Stations

Station Location Temp. Windchill Dew Point Humidity Wind Precip. Elev Updated Type
                   

Watches & Warnings

There are currently no watches in effect.